Time;durP1;ratioP1;P1;durP2;ratioP2;P2;SDS_P1;SDS_P2;PMS_P1;PMS_P2;Temp;Humidity;BMP_temperature;BMP_pressure;BME280_temperature;BME280_humidity;BME280_pressure;Samples;Min_cycle;Max_cycle;Signal;HPM_P1;HPM_P2
2023/04/02 00:01:17;;;;;;;18.23;4.50;;;;;;;16.12;100.00;100915.25;2072537;28;20183;-69
2023/04/02 00:02:48;;;;;;;16.20;3.85;;;;;;;16.09;100.00;100893.94;2070346;28;20062;-69
2023/04/02 00:04:20;;;;;;;19.67;4.72;;;;;;;16.09;100.00;100888.63;2076606;28;20048;-69
2023/04/02 00:05:51;;;;;;;15.63;3.08;;;;;;;16.08;100.00;100900.19;2068245;28;20349;-69
2023/04/02 00:07:29;;;;;;;16.33;4.25;;;;;;;16.08;100.00;100897.53;2080252;28;20492;-70
2023/04/02 00:08:53;;;;;;;22.55;4.40;;;;;;;16.06;100.00;100894.88;2071519;28;20082;-69
2023/04/02 00:10:28;;;;;;;14.70;4.32;;;;;;;16.10;100.00;100895.72;2064983;28;20048;-70
2023/04/02 00:11:54;;;;;;;18.67;4.53;;;;;;;16.07;100.00;100882.44;2068657;28;20395;-69
2023/04/02 00:13:25;;;;;;;13.85;3.40;;;;;;;16.08;100.00;100886.88;2075161;28;20049;-70
2023/04/02 00:14:51;;;;;;;18.30;3.90;;;;;;;16.06;100.00;100894.88;2070050;28;20053;-69
2023/04/02 00:16:17;;;;;;;15.57;3.33;;;;;;;16.05;100.00;100894.88;2076979;28;20049;-69
2023/04/02 00:17:40;;;;;;;17.02;4.22;;;;;;;16.05;100.00;100881.53;2066739;28;20057;-69
2023/04/02 00:19:05;;;;;;;14.80;3.60;;;;;;;16.05;100.00;100902.84;2074205;28;20037;-69
2023/04/02 00:20:28;;;;;;;12.90;3.70;;;;;;;16.05;100.00;100893.09;2069223;28;20777;-69
2023/04/02 00:21:50;;;;;;;14.70;2.50;;;;;;;16.06;100.00;100899.31;2071691;28;20033;-70
2023/04/02 00:23:14;;;;;;;13.75;3.40;;;;;;;16.07;100.00;100901.97;2078025;28;20818;-70
2023/04/02 00:24:40;;;;;;;13.05;3.17;;;;;;;16.06;100.00;100900.19;2076641;28;20044;-69
2023/04/02 00:26:06;;;;;;;14.88;3.42;;;;;;;16.07;100.00;100903.75;2076566;28;20820;-70
2023/04/02 00:27:31;;;;;;;29.00;5.00;;;;;;;16.07;100.00;100911.72;2079904;28;20810;-70
2023/04/02 00:28:53;;;;;;;16.15;3.63;;;;;;;16.07;100.00;100904.63;2077062;28;20079;-69
2023/04/02 00:30:16;;;;;;;19.80;4.53;;;;;;;16.08;100.00;100905.53;2071570;28;20228;-69
2023/04/02 00:31:44;;;;;;;18.15;4.15;;;;;;;16.10;100.00;100903.72;2070948;28;20058;-69
2023/04/02 00:33:15;;;;;;;18.50;3.65;;;;;;;16.10;100.00;100901.94;2059395;28;20052;-69
2023/04/02 00:34:38;;;;;;;18.23;4.55;;;;;;;16.12;100.00;100893.94;2076759;28;20512;-70
2023/04/02 00:36:01;;;;;;;16.30;3.55;;;;;;;16.14;100.00;100879.75;2063531;28;20046;-70
2023/04/02 00:37:27;;;;;;;12.35;3.60;;;;;;;16.16;100.00;100882.38;2075088;28;20119;-69
2023/04/02 00:38:49;;;;;;;14.95;3.50;;;;;;;16.14;100.00;100885.06;2081275;28;20044;-70
2023/04/02 00:40:19;;;;;;;17.30;3.97;;;;;;;16.14;100.00;100870.84;2070690;28;20425;-69
2023/04/02 00:41:45;;;;;;;17.08;4.05;;;;;;;16.14;100.00;100870.84;2069819;28;20161;-70
2023/04/02 00:43:15;;;;;;;17.65;4.95;;;;;;;16.14;100.00;100870.84;2062455;28;20042;-70
2023/04/02 00:44:41;;;;;;;21.48;4.80;;;;;;;16.15;100.00;100872.59;2076028;28;20053;-70
2023/04/02 00:46:12;;;;;;;15.75;3.70;;;;;;;16.15;100.00;100880.59;2063216;28;20137;-72
2023/04/02 00:47:39;;;;;;;12.63;4.25;;;;;;;16.13;100.00;100871.75;2077777;28;20061;-71
2023/04/02 00:49:07;;;;;;;14.50;4.10;;;;;;;16.12;100.00;100872.63;2078190;28;20065;-70
2023/04/02 00:50:35;;;;;;;22.33;4.82;;;;;;;16.13;100.00;100869.97;2084883;28;20354;-70
2023/04/02 00:52:01;;;;;;;10.95;3.63;;;;;;;16.15;100.00;100869.94;2070461;28;20034;-70
2023/04/02 00:53:26;;;;;;;16.17;4.07;;;;;;;16.16;100.00;100863.72;2059088;28;20414;-70
2023/04/02 00:54:51;;;;;;;21.90;4.97;;;;;;;16.16;100.00;100861.06;2062334;28;20518;-70
2023/04/02 00:56:20;;;;;;;21.30;4.15;;;;;;;16.14;100.00;100863.75;2067224;28;20046;-70
2023/04/02 00:57:43;;;;;;;17.42;3.50;;;;;;;16.12;100.00;100854.88;2069509;28;20069;-69
2023/04/02 00:59:19;;;;;;;14.52;3.30;;;;;;;16.11;100.00;100858.44;2064562;28;20184;-70
2023/04/02 01:00:48;;;;;;;12.40;3.45;;;;;;;16.10;100.00;100863.75;2082454;28;20382;-70
2023/04/02 01:02:25;;;;;;;14.20;3.30;;;;;;;16.10;100.00;100855.78;2077019;28;20042;-70
2023/04/02 01:03:57;;;;;;;17.08;4.00;;;;;;;16.10;100.00;100858.44;2068427;28;20140;-69
2023/04/02 01:05:22;;;;;;;17.17;3.42;;;;;;;16.10;100.00;100861.97;2074403;28;20084;-69
2023/04/02 01:06:44;;;;;;;11.90;3.30;;;;;;;16.10;100.00;100854.00;2068963;28;20049;-69
2023/04/02 01:08:14;;;;;;;13.07;2.80;;;;;;;16.11;100.00;100847.78;2075294;28;20052;-69
2023/04/02 01:09:47;;;;;;;11.73;2.63;;;;;;;16.11;100.00;100847.78;2066051;28;20452;-69
2023/04/02 01:11:32;;;;;;;15.07;4.07;;;;;;;16.12;100.00;100848.66;2069028;28;20124;-69
2023/04/02 01:13:01;;;;;;;17.02;3.22;;;;;;;16.15;100.00;100851.28;2077309;28;20091;-69
2023/04/02 01:14:41;;;;;;;15.35;4.22;;;;;;;16.17;100.00;100838.88;2076914;28;20068;-69
2023/04/02 01:16:11;;;;;;;14.10;3.30;;;;;;;16.18;100.00;100851.28;2071143;28;20053;-69
2023/04/02 01:17:47;;;;;;;16.73;4.22;;;;;;;16.16;100.00;100843.31;2068402;28;20689;-69
2023/04/02 01:19:30;;;;;;;13.00;2.95;;;;;;;16.17;100.00;100844.19;2067765;28;20241;-70
2023/04/02 01:21:09;;;;;;;20.52;3.75;;;;;;;16.16;100.00;100851.28;2068516;28;20050;-69
2023/04/02 01:22:40;;;;;;;18.38;3.60;;;;;;;16.17;100.00;100846.84;2074940;28;20128;-69
2023/04/02 01:24:04;;;;;;;15.43;3.45;;;;;;;16.17;100.00;100850.41;2069765;28;20041;-69
2023/04/02 01:25:35;;;;;;;16.48;4.25;;;;;;;16.19;100.00;100845.06;2065363;28;20124;-69
2023/04/02 01:26:59;;;;;;;13.75;3.85;;;;;;;16.20;100.00;100852.19;2075300;28;20042;-69
2023/04/02 01:28:28;;;;;;;13.75;4.65;;;;;;;16.21;100.00;100843.28;2062827;28;20057;-69
2023/04/02 01:29:55;;;;;;;12.85;4.15;;;;;;;16.26;100.00;100850.34;2059037;28;20042;-69
2023/04/02 01:31:17;;;;;;;14.90;4.20;;;;;;;16.28;100.00;100853.88;2067071;28;20567;-69
2023/04/02 01:32:41;;;;;;;14.95;3.75;;;;;;;16.28;100.00;100853.88;2068407;28;20108;-69
2023/04/02 01:34:06;;;;;;;18.35;4.10;;;;;;;16.30;100.00;100840.56;2075886;28;20041;-69
2023/04/02 01:35:34;;;;;;;17.15;4.70;;;;;;;16.33;100.00;100845.88;2070551;28;20528;-70
2023/04/02 01:37:22;;;;;;;12.63;3.65;;;;;;;16.33;100.00;100853.88;2074026;28;20549;-70
2023/04/02 01:38:48;;;;;;;22.80;4.57;;;;;;;16.29;100.00;100845.00;2079335;28;20057;-70
2023/04/02 01:40:27;;;;;;;14.98;3.88;;;;;;;16.29;100.00;100833.44;2067359;28;20068;-70
2023/04/02 01:41:57;;;;;;;14.65;3.85;;;;;;;16.27;100.00;100844.16;2076371;28;20472;-70
2023/04/02 01:43:29;;;;;;;15.63;4.13;;;;;;;16.29;100.00;100846.78;2074255;28;20053;-70
2023/04/02 01:44:54;;;;;;;15.02;4.03;;;;;;;16.30;100.00;100829.91;2076806;28;20362;-70
2023/04/02 01:46:27;;;;;;;18.45;4.45;;;;;;;16.32;100.00;100837.00;2056529;28;20549;-70
2023/04/02 01:47:51;;;;;;;13.95;4.35;;;;;;;16.33;100.00;100843.22;2065758;28;20038;-70
2023/04/02 01:49:15;;;;;;;16.30;4.90;;;;;;;16.34;100.00;100847.66;2072476;28;20106;-70
2023/04/02 01:50:40;;;;;;;14.52;3.70;;;;;;;16.31;100.00;100845.00;2067160;28;20044;-70
2023/04/02 01:52:02;;;;;;;13.40;3.88;;;;;;;16.31;100.00;100837.88;2074655;28;20548;-70
2023/04/02 01:53:30;;;;;;;17.63;4.68;;;;;;;16.30;100.00;100853.88;2065315;28;20053;-70
2023/04/02 01:54:53;;;;;;;14.40;3.85;;;;;;;16.29;100.00;100849.44;2071993;28;20053;-70
2023/04/02 01:56:16;;;;;;;17.73;4.63;;;;;;;16.30;100.00;100846.78;2066051;28;20041;-70
2023/04/02 01:57:40;;;;;;;16.02;3.33;;;;;;;16.27;100.00;100860.13;2062294;28;20105;-69
2023/04/02 01:59:04;;;;;;;15.43;4.47;;;;;;;16.28;100.00;100850.31;2076668;28;20049;-70
2023/04/02 02:00:35;;;;;;;15.20;3.75;;;;;;;16.28;100.00;100845.88;2075619;28;20088;-70
2023/04/02 02:02:01;;;;;;;13.27;4.22;;;;;;;16.27;100.00;100836.16;2067285;28;20739;-70
2023/04/02 02:03:24;;;;;;;16.17;3.53;;;;;;;16.26;100.00;100842.38;2074499;28;20061;-70
2023/04/02 02:04:46;;;;;;;18.25;4.22;;;;;;;16.27;100.00;100836.16;2059782;28;20129;-70
2023/04/02 02:06:13;;;;;;;16.48;4.05;;;;;;;16.27;100.00;100836.16;2072536;28;20057;-70
2023/04/02 02:07:34;;;;;;;15.88;4.10;;;;;;;16.28;100.00;100832.56;2066672;28;20081;-70
2023/04/02 02:09:02;;;;;;;19.73;5.35;;;;;;;16.31;100.00;100845.00;2065141;28;20422;-70
2023/04/02 02:10:26;;;;;;;17.40;4.15;;;;;;;16.31;100.00;100856.53;2065541;28;20537;-69
2023/04/02 02:11:50;;;;;;;16.70;4.40;;;;;;;16.31;100.00;100853.88;2060855;28;20042;-70
2023/04/02 02:13:15;;;;;;;17.10;4.20;;;;;;;16.33;100.00;100851.22;2066136;28;20054;-70
2023/04/02 02:14:37;;;;;;;16.83;4.40;;;;;;;16.34;100.00;100847.66;2061044;28;20074;-70
2023/04/02 02:16:02;;;;;;;18.50;4.13;;;;;;;16.35;100.00;100850.28;2058517;28;20486;-70
2023/04/02 02:17:33;;;;;;;16.73;4.63;;;;;;;16.36;100.00;100851.16;2061961;28;20065;-70
2023/04/02 02:18:59;;;;;;;15.70;4.43;;;;;;;16.34;100.00;100852.97;2061346;28;20183;-70
2023/04/02 02:20:21;;;;;;;14.07;4.20;;;;;;;16.31;100.00;100856.53;2060442;28;20058;-70
2023/04/02 02:21:47;;;;;;;18.10;4.20;;;;;;;16.30;100.00;100843.22;2071971;28;20077;-70
2023/04/02 02:23:13;;;;;;;18.48;4.60;;;;;;;16.29;100.00;100845.00;2066901;28;20076;-70
2023/04/02 02:24:36;;;;;;;17.92;4.20;;;;;;;16.29;100.00;100836.13;2066959;28;20051;-70
2023/04/02 02:25:58;;;;;;;19.40;4.82;;;;;;;16.29;100.00;100831.69;2067252;28;20053;-70
2023/04/02 02:27:46;;;;;;;16.80;4.38;;;;;;;16.29;100.00;100838.78;2067187;28;20049;-70
2023/04/02 02:29:16;;;;;;;16.77;4.57;;;;;;;16.29;100.00;100846.78;2071407;28;20042;-70
2023/04/02 02:30:42;;;;;;;14.73;3.97;;;;;;;16.29;100.00;100846.78;2070440;28;20068;-70
2023/04/02 02:32:10;;;;;;;17.75;4.40;;;;;;;16.30;100.00;100835.22;2068100;28;20050;-69
2023/04/02 02:33:37;;;;;;;16.10;3.63;;;;;;;16.29;100.00;100837.00;2068363;28;20141;-70
2023/04/02 02:35:08;;;;;;;28.83;5.45;;;;;;;16.31;100.00;100821.91;2072683;28;20152;-70
2023/04/02 02:36:38;;;;;;;14.23;3.72;;;;;;;16.31;100.00;100835.22;2071434;28;20041;-69
2023/04/02 02:38:13;;;;;;;17.77;3.90;;;;;;;16.31;100.00;100823.69;2077867;28;20426;-69
2023/04/02 02:39:41;;;;;;;17.50;4.43;;;;;;;16.32;100.00;100838.78;2070243;28;20050;-69
2023/04/02 02:41:07;;;;;;;16.60;3.78;;;;;;;16.33;100.00;100817.47;2068558;28;20124;-69
2023/04/02 02:42:34;;;;;;;12.07;3.83;;;;;;;16.33;100.00;100813.91;2069914;28;20438;-69
2023/04/02 02:44:02;;;;;;;19.73;4.55;;;;;;;16.35;100.00;100825.41;2069292;28;20547;-69
2023/04/02 02:45:28;;;;;;;15.10;3.75;;;;;;;16.34;100.00;100826.34;2068613;28;20061;-69
2023/04/02 02:46:54;;;;;;;17.80;5.25;;;;;;;16.35;100.00;100822.75;2067695;28;20591;-70
2023/04/02 02:48:22;;;;;;;15.95;4.40;;;;;;;16.34;100.00;100819.19;2061423;28;20061;-69
2023/04/02 02:49:48;;;;;;;21.38;4.90;;;;;;;16.33;100.00;100828.13;2065786;28;20077;-70
2023/04/02 02:51:20;;;;;;;11.88;4.00;;;;;;;16.34;100.00;100837.00;2067015;28;20149;-70
2023/04/02 02:52:48;;;;;;;15.70;4.38;;;;;;;16.34;100.00;100834.34;2062707;28;20161;-70
2023/04/02 02:54:12;;;;;;;14.82;3.60;;;;;;;16.33;100.00;100832.56;2067063;28;20043;-70
2023/04/02 02:55:37;;;;;;;17.77;3.40;;;;;;;16.33;100.00;100832.56;2068959;28;20057;-69
2023/04/02 02:57:10;;;;;;;21.48;4.72;;;;;;;16.33;100.00;100824.56;2063583;28;20042;-70
2023/04/02 02:58:33;;;;;;;22.48;5.47;;;;;;;16.34;100.00;100834.34;2077568;28;20800;-69
2023/04/02 03:00:10;;;;;;;22.98;5.68;;;;;;;16.35;100.00;100834.28;2062300;28;20043;-69
2023/04/02 03:01:32;;;;;;;14.10;3.95;;;;;;;16.34;100.00;100842.31;2075368;28;20041;-69
2023/04/02 03:02:58;;;;;;;13.43;3.92;;;;;;;16.37;100.00;100852.06;2068176;28;20048;-70
2023/04/02 03:04:29;;;;;;;15.10;4.07;;;;;;;16.37;100.00;100844.06;2067874;28;20693;-69
2023/04/02 03:05:53;;;;;;;16.67;4.68;;;;;;;16.33;100.00;100825.44;2067535;28;20170;-69
2023/04/02 03:07:18;;;;;;;15.80;4.10;;;;;;;16.36;100.00;100848.50;2072729;28;20054;-69
2023/04/02 03:08:42;;;;;;;15.43;4.30;;;;;;;16.36;100.00;100859.16;2072266;28;20045;-69
2023/04/02 03:10:17;;;;;;;21.40;5.03;;;;;;;16.34;100.00;100856.50;2078797;28;20099;-70
2023/04/02 03:11:49;;;;;;;20.67;4.50;;;;;;;16.31;100.00;100867.19;2071670;28;20046;-69
2023/04/02 03:13:21;;;;;;;24.75;5.60;;;;;;;16.29;100.00;100854.75;2064851;28;20153;-70
2023/04/02 03:14:49;;;;;;;18.17;3.60;;;;;;;16.28;100.00;100850.31;2075773;28;20524;-69
2023/04/02 03:16:16;;;;;;;15.40;4.15;;;;;;;16.28;100.00;100848.56;2066990;28;20060;-69
2023/04/02 03:17:42;;;;;;;21.23;5.25;;;;;;;16.31;100.00;100842.34;2065256;28;20045;-69
2023/04/02 03:19:16;;;;;;;11.90;3.95;;;;;;;16.32;100.00;100849.44;2059950;28;20049;-69
2023/04/02 03:20:44;;;;;;;19.15;4.88;;;;;;;16.31;100.00;100847.66;2072455;28;20080;-69
2023/04/02 03:22:13;;;;;;;13.25;3.83;;;;;;;16.31;100.00;100855.66;2066339;28;20046;-69
2023/04/02 03:23:40;;;;;;;15.75;4.35;;;;;;;16.30;100.00;100867.19;2068969;28;20464;-69
2023/04/02 03:25:15;;;;;;;18.75;4.20;;;;;;;16.29;100.00;100853.00;2059394;28;20125;-69
2023/04/02 03:26:40;;;;;;;16.58;4.78;;;;;;;16.30;100.00;100870.75;2069276;28;20057;-69
2023/04/02 03:28:06;;;;;;;19.25;4.30;;;;;;;16.32;100.00;100849.44;2067665;28;20482;-69
2023/04/02 03:29:32;;;;;;;18.17;4.85;;;;;;;16.32;100.00;100860.09;2063888;28;20184;-69
2023/04/02 03:31:01;;;;;;;13.65;3.92;;;;;;;16.33;100.00;100851.22;2073165;28;20676;-69
2023/04/02 03:32:27;;;;;;;17.08;3.92;;;;;;;16.32;100.00;100855.66;2073138;28;20050;-69
2023/04/02 03:33:54;;;;;;;16.23;3.60;;;;;;;16.31;100.00;100847.66;2066378;28;20457;-69
2023/04/02 03:35:21;;;;;;;14.65;4.22;;;;;;;16.32;100.00;100860.09;2075505;28;20509;-69
2023/04/02 03:36:52;;;;;;;17.88;3.85;;;;;;;16.32;100.00;100865.41;2063977;28;20437;-70
2023/04/02 03:38:19;;;;;;;15.63;3.85;;;;;;;16.35;100.00;100858.28;2070190;28;20076;-69
2023/04/02 03:39:47;;;;;;;16.15;3.97;;;;;;;16.35;100.00;100852.06;2067330;28;20453;-69
2023/04/02 03:41:16;;;;;;;14.82;4.07;;;;;;;16.34;100.00;100856.50;2068973;28;20050;-69
2023/04/02 03:42:44;;;;;;;18.52;3.88;;;;;;;16.37;100.00;100854.72;2066844;28;20058;-69
2023/04/02 03:44:18;;;;;;;17.55;4.97;;;;;;;16.34;100.00;100859.16;2070734;28;20567;-69
2023/04/02 03:45:44;;;;;;;19.33;3.72;;;;;;;16.32;100.00;100842.31;2073096;28;20072;-70
2023/04/02 03:47:14;;;;;;;18.25;3.67;;;;;;;16.32;100.00;100845.00;2066402;28;20513;-69
2023/04/02 03:48:39;;;;;;;17.65;4.03;;;;;;;16.32;100.00;100852.09;2068358;28;20510;-69
2023/04/02 03:50:05;;;;;;;11.60;3.65;;;;;;;16.31;100.00;100842.34;2063375;28;20445;-69
2023/04/02 03:51:32;;;;;;;12.98;3.67;;;;;;;16.31;100.00;100850.31;2068362;28;20041;-69
2023/04/02 03:52:58;;;;;;;19.65;3.83;;;;;;;16.31;100.00;100860.97;2074392;28;20037;-69
2023/04/02 03:54:19;;;;;;;13.18;3.30;;;;;;;16.31;100.00;100860.97;2067252;28;20062;-70
2023/04/02 03:55:43;;;;;;;14.13;3.58;;;;;;;16.29;100.00;100849.44;2063455;28;20763;-69
2023/04/02 03:57:22;;;;;;;19.90;4.45;;;;;;;16.31;100.00;100847.66;2067672;28;20050;-69
2023/04/02 03:58:49;;;;;;;12.57;3.42;;;;;;;16.31;100.00;100853.00;2069420;28;20076;-69
2023/04/02 04:00:17;;;;;;;20.52;3.42;;;;;;;16.30;100.00;100854.75;2064316;28;20594;-69
2023/04/02 04:01:48;;;;;;;15.55;3.80;;;;;;;16.31;100.00;100866.31;2068166;28;20542;-70
2023/04/02 04:03:15;;;;;;;19.23;3.85;;;;;;;16.31;100.00;100869.84;2061955;28;20042;-69
2023/04/02 04:04:41;;;;;;;18.83;4.15;;;;;;;16.30;100.00;100880.53;2058951;28;20043;-69
2023/04/02 04:06:09;;;;;;;16.77;3.35;;;;;;;16.31;100.00;100872.53;2065878;28;20081;-70
2023/04/02 04:07:34;;;;;;;16.33;4.07;;;;;;;16.31;100.00;100863.66;2071076;28;20421;-70
2023/04/02 04:09:06;;;;;;;11.43;3.50;;;;;;;16.31;100.00;100866.31;2075947;28;20060;-69
2023/04/02 04:10:29;;;;;;;14.10;3.85;;;;;;;16.31;100.00;100853.00;2071180;28;20045;-69
2023/04/02 04:11:54;;;;;;;14.88;3.78;;;;;;;16.33;100.00;100869.84;2067168;28;20049;-69
2023/04/02 04:13:21;;;;;;;14.00;3.03;;;;;;;16.33;100.00;100862.75;2073959;28;20045;-69
2023/04/02 04:14:49;;;;;;;12.70;3.08;;;;;;;16.33;100.00;100859.19;2075625;28;20169;-70
2023/04/02 04:16:15;;;;;;;16.52;3.70;;;;;;;16.32;100.00;100871.63;2070637;28;20046;-69
2023/04/02 04:17:50;;;;;;;11.80;2.83;;;;;;;16.31;100.00;100867.19;2066048;28;20490;-70
2023/04/02 04:19:20;;;;;;;14.38;4.35;;;;;;;16.32;100.00;100865.41;2065641;28;20930;-70
2023/04/02 04:20:55;;;;;;;12.95;3.17;;;;;;;16.33;100.00;100878.75;2067039;28;20108;-69
2023/04/02 04:22:28;;;;;;;15.30;3.35;;;;;;;16.35;100.00;100870.72;2069781;28;20050;-70
2023/04/02 04:23:53;;;;;;;12.18;2.80;;;;;;;16.37;100.00;100878.69;2067434;28;20178;-72
2023/04/02 04:25:32;;;;;;;11.45;3.03;;;;;;;16.40;100.00;100873.38;2069842;28;20068;-69
2023/04/02 04:27:03;;;;;;;;;;;;;;;16.37;100.00;100866.28;2063627;28;20081;-69
2023/04/02 04:28:37;;;;;;;19.48;4.28;;;;;;;16.39;100.00;100867.16;2059752;28;19929;-70
2023/04/02 04:30:04;;;;;;;;;;;;;;;16.40;100.00;100870.69;2075355;28;20119;-70
2023/04/02 04:31:38;;;;;;;13.63;2.80;;;;;;;16.43;100.00;100863.56;2068105;28;19921;-70
2023/04/02 04:33:05;;;;;;;12.73;3.10;;;;;;;16.44;100.00;100865.34;2078569;28;20041;-70
2023/04/02 04:34:35;;;;;;;13.13;3.08;;;;;;;16.46;100.00;100865.34;2073301;28;20153;-69
2023/04/02 04:35:59;;;;;;;13.75;2.60;;;;;;;16.48;100.00;100855.53;2071904;28;20455;-70
2023/04/02 04:37:32;;;;;;;16.20;3.45;;;;;;;16.49;100.00;100859.97;2069566;28;20108;-69
2023/04/02 04:38:59;;;;;;;12.07;3.22;;;;;;;16.51;100.00;100855.50;2065311;28;20046;-69
2023/04/02 04:40:30;;;;;;;13.73;2.92;;;;;;;16.53;100.00;100857.28;2067414;28;20163;-69
2023/04/02 04:41:55;;;;;;;12.02;2.78;;;;;;;16.56;100.00;100862.56;2076000;28;20068;-69
2023/04/02 04:43:28;;;;;;;14.90;2.95;;;;;;;16.58;100.00;100867.91;2062895;28;20112;-69
2023/04/02 04:44:57;;;;;;;11.18;2.40;;;;;;;16.59;100.00;100862.56;2064306;28;20038;-69
2023/04/02 04:46:27;;;;;;;10.30;2.47;;;;;;;16.59;100.00;100859.03;2069826;28;20390;-70
2023/04/02 04:47:55;;;;;;;11.80;2.78;;;;;;;16.60;100.00;100851.06;2061537;28;20145;-69
2023/04/02 04:49:22;;;;;;;10.57;2.85;;;;;;;16.63;100.00;100866.13;2067541;28;20596;-69
2023/04/02 04:50:50;;;;;;;13.38;3.72;;;;;;;16.64;100.00;100859.91;2066603;28;20100;-69
2023/04/02 04:52:20;;;;;;;16.02;3.97;;;;;;;16.65;100.00;100865.22;2069634;28;20045;-69
2023/04/02 04:53:48;;;;;;;12.80;3.22;;;;;;;16.65;100.00;100862.56;2067117;28;20192;-70
2023/04/02 04:55:38;;;;;;;11.88;3.05;;;;;;;16.64;100.00;100866.13;2061583;28;20045;-70
2023/04/02 04:57:03;;;;;;;13.68;3.53;;;;;;;16.63;100.00;100866.13;2063859;28;20053;-70
2023/04/02 04:58:32;;;;;;;12.00;3.15;;;;;;;16.66;100.00;100875.00;2074423;28;20049;-69
2023/04/02 05:00:05;;;;;;;16.45;3.05;;;;;;;16.68;100.00;100864.28;2059133;28;20057;-69
2023/04/02 05:01:35;;;;;;;12.07;2.58;;;;;;;16.71;100.00;100861.63;2066548;28;20498;-69
2023/04/02 05:03:08;;;;;;;10.85;2.95;;;;;;;16.73;100.00;100863.38;2067168;28;20046;-69
2023/04/02 05:04:35;;;;;;;9.18;2.60;;;;;;;16.77;100.00;100871.34;2068830;28;20038;-69
2023/04/02 05:06:02;;;;;;;12.63;2.60;;;;;;;16.80;100.00;100871.34;2071431;28;20058;-69
2023/04/02 05:07:29;;;;;;;11.50;2.95;;;;;;;16.83;100.00;100863.28;2068838;28;20046;-70
2023/04/02 05:08:55;;;;;;;18.10;3.15;;;;;;;16.85;100.00;100864.19;2072390;28;20132;-69
2023/04/02 05:10:24;;;;;;;11.13;2.45;;;;;;;16.89;100.00;100852.56;2067171;28;20188;-69
2023/04/02 05:12:00;;;;;;;10.27;2.05;;;;;;;16.94;100.00;100859.63;2062042;28;20104;-70
2023/04/02 05:13:29;;;;;;;9.35;2.38;;;;;;;16.99;100.00;100860.50;2075373;28;20052;-70
2023/04/02 05:14:57;;;;;;;10.32;2.17;;;;;;;17.07;100.00;100855.94;2070143;28;20062;-70
2023/04/02 05:16:26;;;;;;;12.40;2.30;;;;;;;17.13;100.00;100857.72;2060079;28;20427;-70
2023/04/02 05:17:55;;;;;;;8.75;2.40;;;;;;;17.19;100.00;100854.09;2061062;28;20521;-70
2023/04/02 05:19:26;;;;;;;7.93;2.63;;;;;;;17.26;100.00;100859.34;2067581;28;20089;-71
2023/04/02 05:20:51;;;;;;;13.50;3.10;;;;;;;17.31;100.00;100852.19;2077566;28;20149;-70
2023/04/02 05:22:24;;;;;;;11.95;2.92;;;;;;;17.37;100.00;100860.13;2066923;28;20046;-70
2023/04/02 05:23:52;;;;;;;7.60;1.85;;;;;;;17.43;100.00;100853.81;2065840;28;20076;-70
2023/04/02 05:25:20;;;;;;;11.50;2.67;;;;;;;17.50;100.00;100858.19;2078863;28;20430;-70
2023/04/02 05:26:48;;;;;;;7.40;2.38;;;;;;;17.57;100.00;100869.69;2079384;28;20045;-70
2023/04/02 05:28:19;;;;;;;9.88;2.40;;;;;;;17.66;100.00;100864.25;2065533;28;20084;-70
2023/04/02 05:29:46;;;;;;;6.03;1.70;;;;;;;17.72;100.00;100865.06;2073315;28;20045;-70
2023/04/02 05:31:16;;;;;;;8.18;1.85;;;;;;;17.82;100.00;100865.84;2065595;28;20047;-70
2023/04/02 05:32:44;;;;;;;8.98;2.00;;;;;;;17.91;100.00;100866.63;2059850;28;20065;-70
2023/04/02 05:34:06;;;;;;;8.75;2.38;;;;;;;18.00;100.00;100870.94;2073837;28;20042;-70
2023/04/02 05:35:31;;;;;;;12.25;2.78;;;;;;;18.10;100.00;100861.94;2074902;28;20586;-70
2023/04/02 05:36:54;;;;;;;10.52;2.20;;;;;;;18.17;100.00;100868.06;2060882;28;20112;-70
2023/04/02 05:38:19;;;;;;;10.55;2.70;;;;;;;18.23;100.00;100859.97;2071016;28;20096;-70
2023/04/02 05:39:45;;;;;;;10.63;2.15;;;;;;;18.28;100.00;100861.66;2074607;28;20497;-70
2023/04/02 05:41:21;;;;;;;9.02;2.65;;;;;;;18.33;100.00;100854.47;2068303;28;20049;-70
2023/04/02 05:42:48;;;;;;;11.57;2.42;;;;;;;18.37;100.00;100860.66;2066459;28;20042;-70
2023/04/02 05:44:21;;;;;;;10.90;2.10;;;;;;;18.42;100.00;100864.13;2065312;28;20489;-70
2023/04/02 05:45:54;;;;;;;9.93;2.65;;;;;;;18.44;100.00;100850.75;2066662;28;20069;-70
2023/04/02 05:47:24;;;;;;;12.38;2.58;;;;;;;18.47;100.00;100846.22;2072136;28;20106;-70
2023/04/02 05:48:51;;;;;;;6.60;2.10;;;;;;;18.48;100.00;100868.50;2065363;28;20367;-71
2023/04/02 05:50:24;;;;;;;11.02;2.60;;;;;;;18.48;100.00;100858.69;2066703;28;20069;-71
2023/04/02 05:51:51;;;;;;;9.60;2.22;;;;;;;18.50;100.00;100872.06;2077342;28;20049;-71
2023/04/02 05:53:20;;;;;;;12.13;3.17;;;;;;;18.52;100.00;100868.44;2067230;28;20038;-71
2023/04/02 05:54:49;;;;;;;9.90;2.13;;;;;;;18.53;100.00;100872.88;2067957;28;20062;-70
2023/04/02 05:56:18;;;;;;;10.82;2.60;;;;;;;18.56;100.00;100875.56;2067946;28;20053;-71
2023/04/02 05:57:45;;;;;;;8.57;2.45;;;;;;;18.59;100.00;100870.13;2063774;28;20073;-70
2023/04/02 05:59:16;;;;;;;13.57;2.83;;;;;;;18.62;100.00;100862.06;2072620;28;20634;-70
2023/04/02 06:00:50;;;;;;;10.52;3.05;;;;;;;18.67;100.00;100872.69;2074271;28;20049;-70
2023/04/02 06:02:25;;;;;;;10.52;2.40;;;;;;;18.71;100.00;100867.25;2078337;28;20058;-71
2023/04/02 06:03:55;;;;;;;12.00;3.13;;;;;;;18.75;100.00;100870.78;2074089;28;20049;-71
2023/04/02 06:05:24;;;;;;;10.65;3.17;;;;;;;18.78;100.00;100857.34;2071316;28;20481;-70
2023/04/02 06:06:52;;;;;;;14.80;2.88;;;;;;;18.82;99.65;100864.44;2066731;28;20038;-70
2023/04/02 06:08:19;;;;;;;9.23;2.67;;;;;;;18.86;97.91;100863.47;2067687;28;20077;-71
2023/04/02 06:09:45;;;;;;;12.68;3.45;;;;;;;18.89;97.53;100866.09;2066254;28;20418;-70
2023/04/02 06:11:10;;;;;;;7.57;2.22;;;;;;;18.91;98.73;100869.59;2068452;28;20505;-71
2023/04/02 06:12:41;;;;;;;10.48;2.70;;;;;;;18.96;100.00;100861.53;2071484;28;20050;-71
2023/04/02 06:14:03;;;;;;;11.57;2.97;;;;;;;19.01;97.49;100859.66;2067587;28;20136;-71
2023/04/02 06:15:27;;;;;;;;;;;;;;;19.01;95.93;100865.88;2079478;28;20212;-71
2023/04/02 06:16:55;;;;;;;11.65;2.25;;;;;;;19.05;96.08;100856.00;2070551;28;19925;-71
2023/04/02 06:18:19;;;;;;;10.48;2.58;;;;;;;19.12;94.42;100846.94;2072971;28;20049;-71
2023/04/02 06:19:44;;;;;;;12.65;3.17;;;;;;;19.23;94.56;100857.47;2066331;28;20133;-71
2023/04/02 06:21:05;;;;;;;13.60;2.75;;;;;;;19.34;93.46;100850.13;2075492;28;20098;-71
2023/04/02 06:22:35;;;;;;;9.65;2.53;;;;;;;19.43;92.82;100850.81;2072088;28;20049;-71
2023/04/02 06:24:02;;;;;;;11.65;2.35;;;;;;;19.51;87.61;100840.00;2072068;28;20046;-71
2023/04/02 06:25:31;;;;;;;9.05;2.47;;;;;;;19.57;82.20;100845.22;2064273;28;20145;-70
2023/04/02 06:26:59;;;;;;;11.07;2.75;;;;;;;19.64;80.27;100852.22;2074038;28;20052;-71
2023/04/02 06:28:27;;;;;;;8.60;2.40;;;;;;;19.67;81.96;100835.22;2076617;28;20049;-71
2023/04/02 06:29:54;;;;;;;7.03;2.05;;;;;;;19.69;83.53;100846.78;2072071;28;20045;-71
2023/04/02 06:31:28;;;;;;;10.05;2.42;;;;;;;19.73;83.22;100846.69;2071979;28;20634;-71
2023/04/02 06:32:51;;;;;;;9.40;2.50;;;;;;;19.76;77.56;100854.66;2067793;28;20093;-71
2023/04/02 06:34:18;;;;;;;9.50;1.77;;;;;;;19.82;70.94;100857.19;2070071;28;20046;-70
2023/04/02 06:35:56;;;;;;;8.15;2.20;;;;;;;19.87;69.78;100855.34;2071263;28;20506;-71
2023/04/02 06:37:30;;;;;;;8.07;2.10;;;;;;;19.95;69.53;100865.00;2066413;28;20070;-71
2023/04/02 06:39:18;;;;;;;10.30;2.33;;;;;;;20.08;67.68;100858.47;2070854;28;20096;-71
2023/04/02 06:40:46;;;;;;;8.63;2.80;;;;;;;20.18;64.19;100858.22;2074654;28;20507;-71
2023/04/02 06:42:37;;;;;;;13.23;2.22;;;;;;;20.28;66.35;100859.75;2064210;28;20043;-71
2023/04/02 06:44:27;;;;;;;8.18;2.05;;;;;;;20.46;65.93;100876.41;2071551;28;20494;-71